Terminal Aerodrome Forecast
Issued by NWS

Home | Current Version | Previous Version | Text Only | Print | Product List | Glossary On
Versions: 1 2 3 4 5 6 7 8 9 10 11 12 13 14 15 16 17 18 19 20 21 22 23 24 25
000
FTUS43 KDLH 262020 AAA
TAFHIB
TAF AMD
KHIB 262020Z 2620/2718 31012KT P6SM SKC
     FM270200 VRB03KT P6SM BKN200
     FM271000 16004KT P6SM VCSH BKN045
     FM271200 16004KT 3SM -SN BR OVC035
     FM271700 18006KT P6SM OVC025=

USA.gov is the U.S. government's official web portal to all federal, state and local government web resources and services.